Аэропорт: Большое Савино. Пермь

ICAO: USPP

METAR:
2019-09-16 01:00:00
USPP 160100Z 23004MPS CAVOK 06/05 Q1006 R21/090060 NOSIG RMK QFE743
METAR:
2019-09-15 22:58:00
TAF USPP 152258Z 1600/1624 23003G09MPS 5000 BR SCT030 TEMPO 1600/1603 0500 FG VV002 BECMG 1603/1605 9999 NSW TEMPO 1606/1615 20005G14MPS -SHRA BKN011CB FM161500 21005G14MPS 6000 -SHRA BKN011CB